Time;durP1;ratioP1;P1;durP2;ratioP2;P2;SDS_P1;SDS_P2;PMS_P1;PMS_P2;Temp;Humidity;BMP_temperature;BMP_pressure;BME280_temperature;BME280_humidity;BME280_pressure;Samples;Min_cycle;Max_cycle;Signal;HPM_P1;HPM_P2
2022/08/26 00:00:01;;;;;;;30.52;22.33;;;20.80;99.90;;;;;;2114773;28;20441;-71
2022/08/26 00:01:02;;;;;;;31.08;21.60;;;20.80;99.90;;;;;;2114556;28;20055;-70
2022/08/26 00:02:03;;;;;;;29.77;22.05;;;20.80;99.90;;;;;;2096940;28;20056;-72
2022/08/26 00:03:04;;;;;;;29.58;22.15;;;20.80;99.90;;;;;;2097086;28;20082;-71
2022/08/26 00:04:05;;;;;;;31.27;21.75;;;20.80;99.90;;;;;;2114555;28;20024;-70
2022/08/26 00:05:05;;;;;;;30.27;21.80;;;20.70;99.90;;;;;;2114045;28;20024;-70
2022/08/26 00:06:07;;;;;;;32.28;22.95;;;20.70;99.90;;;;;;2113620;28;20118;-71
2022/08/26 00:07:07;;;;;;;29.88;21.70;;;20.70;99.90;;;;;;2113641;28;20107;-71
2022/08/26 00:08:11;;;;;;;30.17;22.13;;;20.70;99.90;;;;;;2113696;28;20026;-71
2022/08/26 00:09:12;;;;;;;27.23;21.45;;;20.70;99.90;;;;;;2113769;28;20440;-71
2022/08/26 00:10:13;;;;;;;26.67;21.45;;;20.70;99.90;;;;;;2114205;28;20050;-71
2022/08/26 00:11:14;;;;;;;31.20;22.08;;;20.70;99.90;;;;;;2114057;28;20035;-71
2022/08/26 00:12:15;;;;;;;30.48;21.38;;;20.70;99.90;;;;;;2114053;28;20027;-71
2022/08/26 00:13:17;;;;;;;26.67;22.00;;;20.70;99.90;;;;;;2114322;28;20031;-71
2022/08/26 00:14:17;;;;;;;32.42;21.85;;;20.70;99.90;;;;;;2114058;28;20080;-70
2022/08/26 00:15:20;;;;;;;31.90;21.63;;;20.70;99.90;;;;;;2114078;28;20507;-72
2022/08/26 00:16:22;;;;;;;31.25;22.85;;;20.70;99.90;;;;;;2114343;27;20397;-71
2022/08/26 00:17:23;;;;;;;29.17;22.92;;;20.70;99.90;;;;;;2114223;28;20686;-71
2022/08/26 00:18:24;;;;;;;31.05;22.30;;;20.70;99.90;;;;;;2114240;28;20031;-73
2022/08/26 00:19:24;;;;;;;32.58;22.88;;;20.60;99.90;;;;;;2114404;28;20035;-71
2022/08/26 00:20:30;;;;;;;35.70;22.80;;;20.60;99.90;;;;;;2114297;28;20030;-71
2022/08/26 00:21:30;;;;;;;31.60;23.50;;;20.60;99.90;;;;;;2114162;28;20034;-71
2022/08/26 00:22:31;;;;;;;29.05;22.75;;;20.60;99.90;;;;;;2114059;28;20023;-71
2022/08/26 00:23:32;;;;;;;29.40;22.73;;;20.60;99.90;;;;;;2114213;28;20042;-71
2022/08/26 00:24:33;;;;;;;28.85;22.42;;;20.60;99.90;;;;;;2113797;28;20085;-71
2022/08/26 00:25:34;;;;;;;29.45;22.90;;;20.60;99.90;;;;;;2114150;28;20031;-71
2022/08/26 00:26:35;;;;;;;33.00;22.92;;;20.50;99.90;;;;;;2114071;28;20020;-71
2022/08/26 00:27:36;;;;;;;29.38;23.08;;;20.60;99.90;;;;;;2114122;28;20472;-72
2022/08/26 00:28:37;;;;;;;27.77;22.70;;;20.60;99.90;;;;;;2113731;28;20042;-71
2022/08/26 00:29:37;;;;;;;32.80;23.00;;;20.60;99.90;;;;;;2114135;28;20031;-71
2022/08/26 00:30:38;;;;;;;26.92;22.00;;;20.50;99.90;;;;;;2114015;28;20046;-71
2022/08/26 00:31:39;;;;;;;31.00;23.27;;;20.50;99.90;;;;;;2114137;28;20385;-71
2022/08/26 00:32:40;;;;;;;31.65;23.10;;;20.50;99.90;;;;;;2114088;28;20027;-70
2022/08/26 00:33:41;;;;;;;32.85;23.17;;;20.50;99.90;;;;;;2114019;28;20543;-69
2022/08/26 00:34:42;;;;;;;29.08;22.55;;;20.50;99.90;;;;;;2113900;28;20027;-69
2022/08/26 00:35:44;;;;;;;33.60;23.63;;;20.50;99.90;;;;;;2114148;28;20189;-70
2022/08/26 00:36:44;;;;;;;32.38;22.30;;;20.50;99.90;;;;;;2114221;28;20059;-71
2022/08/26 00:37:45;;;;;;;33.40;23.40;;;20.50;99.90;;;;;;2114096;28;20038;-71
2022/08/26 00:38:46;;;;;;;30.58;23.88;;;20.50;99.90;;;;;;2114001;28;20035;-71
2022/08/26 00:39:47;;;;;;;36.42;23.83;;;20.50;99.90;;;;;;2113065;28;20035;-71
2022/08/26 00:40:52;;;;;;;31.98;23.75;;;20.50;99.90;;;;;;2112905;28;20085;-71
2022/08/26 00:41:53;;;;;;;32.00;23.13;;;20.50;99.90;;;;;;2113853;28;20063;-70
2022/08/26 00:42:54;;;;;;;28.58;23.23;;;20.50;99.90;;;;;;2113187;28;20028;-71
2022/08/26 00:43:54;;;;;;;28.00;22.15;;;20.50;99.90;;;;;;2113319;28;20063;-71
2022/08/26 00:44:55;;;;;;;30.73;23.00;;;20.50;99.90;;;;;;2113717;28;20036;-71
2022/08/26 00:46:17;;;;;;;32.10;23.60;;;20.50;99.90;;;;;;2113838;28;20031;-71
2022/08/26 00:47:31;;;;;;;28.63;23.40;;;20.40;99.90;;;;;;2113809;28;20031;-71
2022/08/26 00:48:34;;;;;;;34.17;23.55;;;20.40;99.90;;;;;;2113855;28;20023;-71
2022/08/26 00:49:41;;;;;;;33.58;23.90;;;20.40;99.90;;;;;;2113896;28;20023;-71
2022/08/26 00:50:51;;;;;;;31.73;22.95;;;20.40;99.90;;;;;;2113693;28;20028;-71
2022/08/26 00:51:54;;;;;;;33.38;23.52;;;20.40;99.90;;;;;;2114217;28;20036;-70
2022/08/26 00:52:58;;;;;;;31.98;24.63;;;20.40;99.90;;;;;;2113805;27;20024;-71
2022/08/26 00:54:06;;;;;;;32.45;23.40;;;20.40;99.90;;;;;;2113490;28;20058;-71
2022/08/26 00:55:29;;;;;;;33.08;23.83;;;20.40;99.90;;;;;;2113009;28;20020;-70
2022/08/26 00:56:42;;;;;;;32.45;23.55;;;20.40;99.90;;;;;;2113894;28;20104;-71
2022/08/26 00:57:44;;;;;;;32.55;23.92;;;20.40;99.90;;;;;;2113823;28;20023;-70
2022/08/26 00:58:46;;;;;;;32.58;24.38;;;20.40;99.90;;;;;;2113878;28;20028;-72
2022/08/26 00:59:53;;;;;;;31.83;25.35;;;20.40;99.90;;;;;;2113876;28;20036;-70
2022/08/26 01:00:54;;;;;;;30.50;23.27;;;20.40;99.90;;;;;;2114098;28;20118;-70
2022/08/26 01:01:55;;;;;;;30.45;23.13;;;20.30;99.90;;;;;;2113923;28;20107;-70
2022/08/26 01:02:59;;;;;;;31.38;23.45;;;20.30;99.90;;;;;;2113725;28;20036;-70
2022/08/26 01:04:00;;;;;;;33.30;23.77;;;20.30;99.90;;;;;;2113948;28;20137;-71
2022/08/26 01:05:04;;;;;;;34.25;24.20;;;20.30;99.90;;;;;;2113599;28;20028;-71
2022/08/26 01:06:06;;;;;;;30.98;23.33;;;20.30;99.90;;;;;;2114057;28;20042;-70
2022/08/26 01:07:07;;;;;;;34.17;24.42;;;20.30;99.90;;;;;;2113683;28;20055;-71
2022/08/26 01:08:08;;;;;;;31.98;23.83;;;20.30;99.90;;;;;;2113758;28;20036;-70
2022/08/26 01:09:08;;;;;;;32.95;24.05;;;20.30;99.90;;;;;;2113655;28;20092;-70
2022/08/26 01:10:14;;;;;;;32.22;24.08;;;20.30;99.90;;;;;;2113263;28;20039;-70
2022/08/26 01:11:15;;;;;;;31.17;23.38;;;20.30;99.90;;;;;;2113047;28;20020;-71
2022/08/26 01:12:16;;;;;;;28.67;23.40;;;20.30;99.90;;;;;;2113316;28;20024;-70
2022/08/26 01:13:17;;;;;;;30.95;23.65;;;20.20;99.90;;;;;;2113191;28;20019;-70
2022/08/26 01:14:21;;;;;;;31.10;23.80;;;20.20;99.90;;;;;;2113293;28;20505;-71
2022/08/26 01:15:26;;;;;;;30.52;24.23;;;20.20;99.90;;;;;;2113823;28;20144;-70
2022/08/26 01:16:27;;;;;;;33.45;24.73;;;20.20;99.90;;;;;;2113808;28;20042;-70
2022/08/26 01:17:28;;;;;;;34.42;25.23;;;20.20;99.90;;;;;;2113859;28;20015;-70
2022/08/26 01:18:30;;;;;;;29.52;23.83;;;20.20;99.90;;;;;;2113641;27;20038;-70
2022/08/26 01:19:42;;;;;;;31.75;24.50;;;20.20;99.90;;;;;;2113624;28;20579;-70
2022/08/26 01:21:06;;;;;;;29.98;24.30;;;20.20;99.90;;;;;;2113668;28;20024;-71
2022/08/26 01:22:31;;;;;;;36.15;25.48;;;20.20;99.90;;;;;;2113583;28;20073;-70
2022/08/26 01:23:37;;;;;;;35.20;25.48;;;20.10;99.90;;;;;;2113222;28;20031;-70
2022/08/26 01:24:39;;;;;;;34.45;25.52;;;20.20;99.90;;;;;;2113053;28;20047;-70
2022/08/26 01:25:47;;;;;;;33.17;24.92;;;20.10;99.90;;;;;;2113744;28;20030;-70
2022/08/26 01:26:48;;;;;;;32.45;24.40;;;20.20;99.90;;;;;;2113589;28;20545;-70
2022/08/26 01:27:49;;;;;;;34.33;24.95;;;20.20;99.90;;;;;;2113567;28;20039;-72
2022/08/26 01:28:54;;;;;;;33.45;24.63;;;20.20;99.90;;;;;;2113488;28;20542;-71
2022/08/26 01:29:55;;;;;;;35.30;25.50;;;20.10;99.90;;;;;;2113739;28;20498;-71
2022/08/26 01:30:56;;;;;;;34.97;25.25;;;20.10;99.90;;;;;;2113509;28;20047;-71
2022/08/26 01:31:57;;;;;;;32.22;24.50;;;20.10;99.90;;;;;;2113613;28;20019;-72
2022/08/26 01:33:01;;;;;;;30.92;24.77;;;20.10;99.90;;;;;;2113641;28;20027;-71
2022/08/26 01:34:14;;;;;;;35.10;25.92;;;20.10;99.90;;;;;;2113585;28;20027;-71
2022/08/26 01:35:14;;;;;;;33.10;24.48;;;20.10;99.90;;;;;;2113485;28;20566;-72
2022/08/26 01:36:15;;;;;;;32.70;24.88;;;20.10;99.90;;;;;;2113456;28;20076;-71
2022/08/26 01:37:19;;;;;;;34.22;24.80;;;20.10;99.90;;;;;;2113269;28;20027;-71
2022/08/26 01:38:19;;;;;;;33.28;25.08;;;20.10;99.90;;;;;;2113374;28;20035;-71
2022/08/26 01:39:20;;;;;;;36.30;24.90;;;20.10;99.90;;;;;;2113372;28;20031;-71
2022/08/26 01:40:28;;;;;;;36.03;24.63;;;20.10;99.90;;;;;;2113315;28;20051;-71
2022/08/26 01:41:30;;;;;;;32.38;25.92;;;20.10;99.90;;;;;;2113749;28;20038;-71
2022/08/26 01:42:30;;;;;;;32.30;24.77;;;20.00;99.90;;;;;;2113401;28;20400;-72
2022/08/26 01:43:32;;;;;;;36.08;24.58;;;20.00;99.90;;;;;;2113579;28;20038;-70
2022/08/26 01:44:39;;;;;;;32.78;24.77;;;20.00;99.90;;;;;;2113294;28;20031;-71
2022/08/26 01:45:41;;;;;;;32.72;24.85;;;20.00;99.90;;;;;;2113645;28;20031;-71
2022/08/26 01:46:44;;;;;;;29.75;25.13;;;20.00;99.90;;;;;;2113595;28;20078;-70
2022/08/26 01:47:47;;;;;;;31.13;24.30;;;20.00;99.90;;;;;;2104243;28;20039;-71
2022/08/26 01:48:50;;;;;;;35.03;24.35;;;20.00;99.90;;;;;;2104605;28;20044;-71
2022/08/26 01:49:54;;;;;;;30.70;24.60;;;20.00;99.90;;;;;;2113433;28;20020;-71
2022/08/26 01:50:56;;;;;;;34.33;25.35;;;20.00;99.90;;;;;;2113277;28;20031;-71
2022/08/26 01:51:57;;;;;;;35.67;25.30;;;20.00;99.90;;;;;;2111998;28;20031;-70
2022/08/26 01:53:03;;;;;;;30.00;24.60;;;20.00;99.90;;;;;;2104606;28;20040;-70
2022/08/26 01:54:06;;;;;;;30.48;24.63;;;20.00;99.90;;;;;;2112939;28;20808;-70
2022/08/26 01:55:08;;;;;;;30.75;23.60;;;20.00;99.90;;;;;;2113237;28;20077;-70
2022/08/26 01:56:10;;;;;;;31.15;24.25;;;20.00;99.90;;;;;;2104523;28;20241;-71
2022/08/26 01:57:13;;;;;;;31.10;24.05;;;20.00;99.90;;;;;;2104345;28;20489;-70
2022/08/26 01:58:20;;;;;;;27.45;23.70;;;20.00;99.90;;;;;;2113276;28;20147;-70
2022/08/26 01:59:22;;;;;;;30.65;24.20;;;20.00;99.90;;;;;;2113042;28;20029;-70
2022/08/26 02:00:25;;;;;;;34.03;24.92;;;20.00;99.90;;;;;;2113460;28;20039;-70
2022/08/26 02:01:27;;;;;;;32.40;24.73;;;19.90;99.90;;;;;;2113321;28;20114;-70
2022/08/26 02:02:28;;;;;;;32.75;24.92;;;19.90;99.90;;;;;;2112963;28;20035;-71
2022/08/26 02:03:29;;;;;;;34.08;25.17;;;19.90;99.90;;;;;;2112936;28;20477;-71
2022/08/26 02:04:37;;;;;;;31.73;25.33;;;19.90;99.90;;;;;;2113276;28;20039;-71
2022/08/26 02:05:38;;;;;;;35.80;25.67;;;19.90;99.90;;;;;;2113187;28;20015;-70
2022/08/26 02:06:45;;;;;;;35.15;25.60;;;19.90;99.90;;;;;;2113462;28;20031;-70
2022/08/26 02:07:47;;;;;;;32.25;24.77;;;19.90;99.90;;;;;;2112364;28;20055;-71
2022/08/26 02:08:53;;;;;;;32.67;24.70;;;19.90;99.90;;;;;;2112597;28;20055;-72
2022/08/26 02:09:54;;;;;;;35.47;25.35;;;19.90;99.90;;;;;;2112689;28;20031;-72
2022/08/26 02:10:55;;;;;;;31.88;24.17;;;19.80;99.90;;;;;;2112367;28;20569;-72
2022/08/26 02:11:56;;;;;;;32.58;24.92;;;19.90;99.90;;;;;;2112372;28;20035;-69
2022/08/26 02:12:56;;;;;;;33.13;25.10;;;19.80;99.90;;;;;;2112702;28;20034;-70
2022/08/26 02:14:19;;;;;;;33.88;25.25;;;19.80;99.90;;;;;;2113306;28;20031;-70
2022/08/26 02:15:20;;;;;;;33.58;25.65;;;19.80;99.90;;;;;;2113291;28;20046;-71
2022/08/26 02:16:24;;;;;;;34.28;25.63;;;19.80;99.90;;;;;;2113222;28;20038;-70
2022/08/26 02:17:31;;;;;;;33.85;25.23;;;19.80;99.90;;;;;;2113261;28;20588;-71
2022/08/26 02:18:35;;;;;;;34.75;25.73;;;19.80;99.90;;;;;;2113202;28;20055;-70
2022/08/26 02:19:40;;;;;;;32.00;24.70;;;19.80;99.90;;;;;;2113450;28;20059;-71
2022/08/26 02:21:01;;;;;;;33.20;25.27;;;19.80;99.90;;;;;;2113702;28;20031;-71
2022/08/26 02:22:10;;;;;;;33.97;25.50;;;19.80;99.90;;;;;;2113586;28;20110;-72
2022/08/26 02:23:17;;;;;;;37.58;25.30;;;19.80;99.90;;;;;;2113881;28;20088;-71
2022/08/26 02:24:25;;;;;;;33.63;25.13;;;19.80;99.90;;;;;;2113288;28;20098;-71
2022/08/26 02:25:48;;;;;;;34.20;25.38;;;19.80;99.90;;;;;;2113127;28;20027;-72
2022/08/26 02:26:49;;;;;;;33.78;24.65;;;19.80;99.90;;;;;;2112640;28;20020;-72
2022/08/26 02:27:51;;;;;;;31.60;24.90;;;19.80;99.90;;;;;;2113116;28;20434;-72
2022/08/26 02:29:01;;;;;;;30.80;24.20;;;19.70;99.90;;;;;;2112273;28;20030;-71
2022/08/26 02:30:07;;;;;;;30.40;24.40;;;19.80;99.90;;;;;;2112755;28;20044;-71
2022/08/26 02:31:08;;;;;;;32.97;25.23;;;19.80;99.90;;;;;;2104408;28;20088;-70
2022/08/26 02:32:11;;;;;;;32.28;25.50;;;19.80;99.90;;;;;;2104815;28;20027;-70
2022/08/26 02:33:15;;;;;;;30.25;24.85;;;19.80;99.90;;;;;;2105193;28;20016;-70
2022/08/26 02:34:29;;;;;;;33.22;24.88;;;19.70;99.90;;;;;;2113879;28;20031;-70
2022/08/26 02:35:32;;;;;;;33.55;25.42;;;19.70;99.90;;;;;;2114561;28;20101;-70
2022/08/26 02:37:05;;;;;;;34.00;25.58;;;19.70;99.90;;;;;;2106483;28;20028;-70
2022/08/26 02:38:09;;;;;;;30.90;24.48;;;19.70;99.90;;;;;;2113400;28;20024;-71
2022/08/26 02:39:10;;;;;;;34.58;24.48;;;19.70;99.90;;;;;;2113212;28;20027;-71
2022/08/26 02:40:16;;;;;;;35.35;25.95;;;19.70;99.90;;;;;;2113531;28;20497;-71
2022/08/26 02:41:17;;;;;;;35.20;25.13;;;19.70;99.90;;;;;;2113258;28;20496;-69
2022/08/26 02:42:18;;;;;;;33.58;24.92;;;19.70;99.90;;;;;;2112584;28;20027;-71
2022/08/26 02:43:18;;;;;;;33.97;25.30;;;19.70;99.90;;;;;;2104013;28;20032;-70
2022/08/26 02:44:19;;;;;;;34.13;25.08;;;19.70;99.90;;;;;;2112577;28;20031;-70
2022/08/26 02:45:20;;;;;;;33.50;25.40;;;19.70;99.90;;;;;;2113140;28;20034;-70
2022/08/26 02:46:21;;;;;;;33.63;25.15;;;19.70;99.90;;;;;;2113328;28;20024;-70
2022/08/26 02:47:21;;;;;;;33.22;25.58;;;19.70;99.90;;;;;;2113124;28;20737;-70
2022/08/26 02:48:22;;;;;;;32.55;25.80;;;19.70;99.90;;;;;;2113245;28;20132;-70
2022/08/26 02:49:24;;;;;;;36.45;26.13;;;19.70;99.90;;;;;;2112393;28;20076;-69
2022/08/26 02:50:25;;;;;;;36.33;25.63;;;19.70;99.90;;;;;;2112674;28;20038;-70
2022/08/26 02:51:26;;;;;;;35.20;25.88;;;19.70;99.90;;;;;;2113282;28;20042;-70
2022/08/26 02:52:27;;;;;;;32.55;25.58;;;19.70;99.90;;;;;;2113166;28;20482;-70
2022/08/26 02:53:28;;;;;;;35.13;25.90;;;19.70;99.90;;;;;;2112452;28;20023;-71
2022/08/26 02:54:29;;;;;;;33.85;25.10;;;19.70;99.90;;;;;;2112210;28;20028;-70
2022/08/26 02:55:30;;;;;;;30.15;25.50;;;19.70;99.90;;;;;;2112217;28;20131;-69
2022/08/26 02:56:34;;;;;;;36.00;25.63;;;19.70;99.90;;;;;;2104190;28;20510;-70
2022/08/26 02:57:34;;;;;;;33.83;25.63;;;19.70;99.90;;;;;;2104412;28;20030;-70
2022/08/26 02:58:35;;;;;;;33.22;25.88;;;19.70;99.90;;;;;;2112560;28;20042;-70
2022/08/26 02:59:38;;;;;;;31.58;25.23;;;19.60;99.90;;;;;;2113195;28;20095;-71
2022/08/26 03:00:39;;;;;;;32.08;25.05;;;19.60;99.90;;;;;;2113094;28;20035;-71
2022/08/26 03:01:40;;;;;;;30.73;25.00;;;19.60;99.90;;;;;;2113252;28;20088;-70
2022/08/26 03:02:41;;;;;;;33.88;26.27;;;19.70;99.90;;;;;;2113258;28;20028;-70
2022/08/26 03:03:42;;;;;;;31.83;25.42;;;19.60;99.90;;;;;;2114575;28;20164;-70
2022/08/26 03:04:42;;;;;;;32.72;25.77;;;19.60;99.90;;;;;;2114622;28;20035;-70
2022/08/26 03:05:43;;;;;;;35.80;25.88;;;19.60;99.90;;;;;;2114671;28;20832;-70
2022/08/26 03:06:44;;;;;;;31.73;25.60;;;19.60;99.90;;;;;;2114677;28;20027;-70
2022/08/26 03:07:45;;;;;;;30.67;25.27;;;19.60;99.90;;;;;;2114817;28;20026;-70
2022/08/26 03:08:46;;;;;;;40.55;26.77;;;19.60;99.90;;;;;;2114717;28;20815;-70
2022/08/26 03:09:46;;;;;;;34.33;26.02;;;19.60;99.90;;;;;;2114084;28;20030;-70
2022/08/26 03:10:47;;;;;;;35.53;26.15;;;19.60;99.90;;;;;;2114074;28;20057;-70
2022/08/26 03:11:48;;;;;;;34.60;25.90;;;19.60;99.90;;;;;;2114798;28;20061;-71
2022/08/26 03:12:48;;;;;;;33.97;25.58;;;19.50;99.90;;;;;;2114862;28;20110;-70
2022/08/26 03:13:50;;;;;;;35.80;25.35;;;19.60;99.90;;;;;;2114697;28;20028;-70
2022/08/26 03:14:50;;;;;;;32.50;25.27;;;19.60;99.90;;;;;;2114428;28;20024;-70
2022/08/26 03:15:51;;;;;;;33.30;26.05;;;19.60;99.90;;;;;;2114143;28;20074;-70
2022/08/26 03:16:53;;;;;;;33.90;25.67;;;19.50;99.90;;;;;;2105499;28;20035;-70
2022/08/26 03:17:54;;;;;;;31.35;25.67;;;19.60;99.90;;;;;;2113944;28;20051;-70
2022/08/26 03:18:54;;;;;;;30.35;24.75;;;19.50;99.90;;;;;;2114602;28;20518;-71
2022/08/26 03:19:55;;;;;;;30.92;25.55;;;19.50;99.90;;;;;;2113817;28;20512;-70
2022/08/26 03:20:56;;;;;;;31.60;25.17;;;19.60;99.90;;;;;;2113923;28;20164;-70
2022/08/26 03:21:57;;;;;;;30.70;25.52;;;19.50;99.90;;;;;;2113845;28;20067;-70
2022/08/26 03:22:58;;;;;;;32.13;26.08;;;19.50;99.90;;;;;;2105412;28;20681;-70
2022/08/26 03:23:59;;;;;;;37.38;29.05;;;19.50;99.90;;;;;;2114053;28;20031;-70
2022/08/26 03:25:02;;;;;;;34.70;27.13;;;19.50;99.90;;;;;;2114310;28;20032;-70
2022/08/26 03:26:03;;;;;;;35.30;27.60;;;19.50;99.90;;;;;;2114632;28;20051;-70
2022/08/26 03:27:04;;;;;;;38.13;28.02;;;19.50;99.90;;;;;;2114478;28;20072;-71
2022/08/26 03:28:05;;;;;;;33.35;27.33;;;19.50;99.90;;;;;;2113879;28;20087;-72
2022/08/26 03:30:41;;;;;;;35.50;25.83;;;19.50;99.90;;;;;;2114430;28;20027;-71
2022/08/26 03:31:41;;;;;;;36.65;25.85;;;19.50;99.90;;;;;;2114532;28;20028;-71
2022/08/26 03:32:43;;;;;;;33.28;25.15;;;19.50;99.90;;;;;;2114467;28;20051;-71
2022/08/26 03:33:43;;;;;;;31.92;25.10;;;19.50;99.90;;;;;;2113718;28;20425;-71
2022/08/26 03:34:45;;;;;;;32.03;25.30;;;19.50;99.90;;;;;;2113538;28;20026;-71
2022/08/26 03:35:48;;;;;;;31.83;24.67;;;19.50;99.90;;;;;;2104743;28;20032;-70
2022/08/26 03:36:49;;;;;;;33.72;25.90;;;19.50;99.90;;;;;;2113536;28;20490;-72
2022/08/26 03:37:50;;;;;;;38.90;26.38;;;19.50;99.90;;;;;;2113537;28;20047;-71
2022/08/26 03:38:51;;;;;;;32.75;26.00;;;19.50;99.90;;;;;;2114319;27;20027;-69
2022/08/26 03:39:52;;;;;;;33.47;25.40;;;19.40;99.90;;;;;;2114163;28;20546;-71
2022/08/26 03:40:52;;;;;;;33.08;26.23;;;19.40;99.90;;;;;;2114308;28;20035;-70
2022/08/26 03:41:54;;;;;;;33.20;25.55;;;19.40;99.90;;;;;;2114465;28;20031;-71
2022/08/26 03:42:54;;;;;;;37.85;26.10;;;19.40;99.90;;;;;;2114426;28;20055;-71
2022/08/26 03:43:55;;;;;;;36.40;25.83;;;19.40;99.90;;;;;;2114037;28;20066;-70
2022/08/26 03:44:56;;;;;;;37.60;25.77;;;19.40;99.90;;;;;;2114218;28;20035;-70
2022/08/26 03:45:56;;;;;;;33.55;26.23;;;19.40;99.90;;;;;;2114227;28;20099;-71
2022/08/26 03:46:57;;;;;;;32.47;25.48;;;19.40;99.90;;;;;;2113441;28;20032;-71
2022/08/26 03:47:58;;;;;;;34.20;27.08;;;19.40;99.90;;;;;;2113443;27;20038;-70
2022/08/26 03:49:01;;;;;;;32.20;25.85;;;19.40;99.90;;;;;;2113844;28;20063;-70
2022/08/26 03:50:02;;;;;;;34.08;25.77;;;19.40;99.90;;;;;;2113347;28;20141;-70
2022/08/26 03:51:09;;;;;;;35.17;26.30;;;19.40;99.90;;;;;;2113549;28;20034;-71
2022/08/26 03:52:10;;;;;;;32.33;25.13;;;19.40;99.90;;;;;;2114164;28;20449;-71
2022/08/26 03:53:11;;;;;;;34.47;25.40;;;19.40;99.90;;;;;;2113967;28;20031;-71
2022/08/26 03:54:11;;;;;;;33.03;25.60;;;19.40;99.90;;;;;;2114097;28;20118;-71
2022/08/26 03:55:13;;;;;;;32.63;25.00;;;19.40;99.90;;;;;;2113817;28;20057;-71
2022/08/26 03:56:14;;;;;;;33.53;25.65;;;19.40;99.90;;;;;;2114125;28;20027;-70
2022/08/26 03:57:15;;;;;;;34.25;26.42;;;19.30;99.90;;;;;;2113891;28;20054;-71
2022/08/26 03:58:15;;;;;;;34.63;26.10;;;19.40;99.90;;;;;;2113764;28;20047;-71
2022/08/26 03:59:16;;;;;;;33.25;25.67;;;19.40;99.90;;;;;;2113897;28;20374;-71
2022/08/26 04:00:18;;;;;;;35.85;26.38;;;19.30;99.90;;;;;;2114059;28;20031;-71
2022/08/26 04:01:19;;;;;;;31.65;26.42;;;19.30;99.90;;;;;;2113957;28;20038;-71
2022/08/26 04:02:20;;;;;;;35.20;26.77;;;19.30;99.90;;;;;;2114314;28;20075;-71
2022/08/26 04:03:56;;;;;;;35.40;26.80;;;19.30;99.90;;;;;;2113984;28;20019;-71
2022/08/26 04:04:41;;;;;;;;;;;19.30;99.90;;;;;;2114073;28;20143;-71
2022/08/26 04:05:42;;;;;;;34.58;26.52;;;19.30;99.90;;;;;;2114109;27;19911;-71
2022/08/26 04:06:43;;;;;;;33.25;25.80;;;19.30;99.90;;;;;;2114251;28;20073;-71
2022/08/26 04:07:44;;;;;;;30.58;25.27;;;19.30;99.90;;;;;;2113977;28;20057;-71
2022/08/26 04:08:45;;;;;;;34.70;26.67;;;19.30;99.90;;;;;;2113893;28;20683;-71
2022/08/26 04:09:46;;;;;;;34.67;25.48;;;19.30;99.90;;;;;;2114336;28;20035;-70
2022/08/26 04:10:47;;;;;;;37.88;26.05;;;19.30;99.90;;;;;;2114013;28;20138;-70
2022/08/26 04:11:48;;;;;;;35.15;26.27;;;19.30;99.90;;;;;;2113892;28;20410;-70
2022/08/26 04:12:50;;;;;;;32.55;26.13;;;19.30;99.90;;;;;;2113848;28;20027;-71
2022/08/26 04:13:51;;;;;;;35.67;26.13;;;19.30;99.90;;;;;;2113879;28;20023;-71
2022/08/26 04:14:52;;;;;;;34.22;25.98;;;19.30;99.90;;;;;;2112955;28;20023;-71
2022/08/26 04:15:53;;;;;;;34.63;26.98;;;19.30;99.90;;;;;;2113787;28;20107;-71
2022/08/26 04:16:55;;;;;;;35.45;26.60;;;19.30;99.90;;;;;;2114015;28;20047;-72
2022/08/26 04:17:55;;;;;;;35.60;26.35;;;19.30;99.90;;;;;;2113059;28;20031;-72
2022/08/26 04:18:57;;;;;;;36.17;26.25;;;19.30;99.90;;;;;;2113224;28;20023;-72
2022/08/26 04:19:58;;;;;;;36.45;26.30;;;19.30;99.90;;;;;;2114002;28;20023;-71
2022/08/26 04:20:58;;;;;;;35.67;26.05;;;19.30;99.90;;;;;;2113075;28;20032;-71
2022/08/26 04:21:59;;;;;;;32.80;26.83;;;19.30;99.90;;;;;;2113241;28;20036;-71
2022/08/26 04:23:00;;;;;;;35.15;26.10;;;19.30;99.90;;;;;;2113174;28;20035;-71
2022/08/26 04:24:01;;;;;;;35.55;26.92;;;19.40;99.90;;;;;;2113339;28;20051;-71
2022/08/26 04:25:01;;;;;;;36.00;26.67;;;19.40;99.90;;;;;;2112838;28;20551;-71
2022/08/26 04:26:02;;;;;;;33.95;25.98;;;19.40;99.90;;;;;;2113114;28;20529;-72
2022/08/26 04:27:03;;;;;;;36.65;27.08;;;19.40;99.90;;;;;;2113694;28;20024;-72
2022/08/26 04:28:04;;;;;;;33.75;25.85;;;19.40;99.90;;;;;;2113989;28;20125;-71
2022/08/26 04:29:08;;;;;;;36.45;26.02;;;19.40;99.90;;;;;;2113645;28;20032;-71
2022/08/26 04:30:09;;;;;;;38.15;26.15;;;19.40;99.90;;;;;;2113783;28;20020;-72
2022/08/26 04:31:15;;;;;;;35.25;26.30;;;19.40;99.90;;;;;;2113790;28;20023;-71
2022/08/26 04:32:16;;;;;;;32.67;25.75;;;19.40;99.90;;;;;;2113807;28;20047;-71
2022/08/26 04:33:16;;;;;;;36.15;25.55;;;19.40;99.90;;;;;;2113864;28;20024;-71
2022/08/26 04:34:18;;;;;;;35.22;25.52;;;19.40;99.90;;;;;;2113531;28;20022;-71
2022/08/26 04:35:19;;;;;;;35.00;25.92;;;19.40;99.90;;;;;;2113684;28;20030;-71
2022/08/26 04:36:19;;;;;;;35.53;26.13;;;19.40;99.90;;;;;;2114070;28;20038;-72
2022/08/26 04:37:20;;;;;;;34.50;25.98;;;19.40;99.90;;;;;;2114072;28;20090;-71
2022/08/26 04:38:21;;;;;;;38.97;26.33;;;19.40;99.90;;;;;;2113143;28;20031;-71
2022/08/26 04:39:22;;;;;;;32.55;25.77;;;19.40;99.90;;;;;;2113180;28;20051;-71
2022/08/26 04:40:23;;;;;;;35.92;26.00;;;19.40;99.90;;;;;;2113735;28;20397;-71
2022/08/26 04:41:23;;;;;;;34.03;25.35;;;19.40;99.90;;;;;;2113478;28;20028;-71
2022/08/26 04:42:24;;;;;;;35.67;25.83;;;19.40;99.90;;;;;;2113649;28;20035;-71
2022/08/26 04:43:29;;;;;;;35.78;25.80;;;19.40;99.90;;;;;;2113577;28;20032;-72
2022/08/26 04:44:30;;;;;;;34.60;25.90;;;19.40;99.90;;;;;;2113543;28;20549;-72
2022/08/26 04:45:34;;;;;;;31.48;24.60;;;19.40;99.90;;;;;;2113457;28;20023;-71
2022/08/26 04:46:35;;;;;;;29.33;24.15;;;19.40;99.90;;;;;;2113167;28;20031;-72
2022/08/26 04:47:36;;;;;;;31.23;24.85;;;19.50;99.90;;;;;;2112990;28;20073;-71
2022/08/26 04:48:36;;;;;;;33.50;24.35;;;19.50;99.90;;;;;;2112856;28;20374;-70
2022/08/26 04:49:37;;;;;;;31.23;24.42;;;19.50;99.90;;;;;;2112908;28;20827;-71
2022/08/26 04:50:38;;;;;;;31.42;25.00;;;19.50;99.90;;;;;;2113554;28;20031;-70
2022/08/26 04:51:39;;;;;;;29.13;23.48;;;19.50;99.90;;;;;;2114010;28;20118;-70
2022/08/26 04:52:39;;;;;;;34.13;25.30;;;19.50;99.90;;;;;;2113453;28;20570;-70
2022/08/26 04:53:40;;;;;;;31.20;25.17;;;19.50;99.90;;;;;;2113785;28;20126;-70
2022/08/26 04:54:41;;;;;;;32.92;24.20;;;19.50;99.90;;;;;;2112913;28;20024;-71
2022/08/26 04:55:41;;;;;;;31.52;24.10;;;19.50;99.90;;;;;;2104412;28;20115;-70
2022/08/26 04:56:45;;;;;;;28.27;23.55;;;19.60;99.90;;;;;;2113097;28;20031;-70
2022/08/26 04:57:46;;;;;;;27.20;23.48;;;19.60;99.90;;;;;;2113653;28;20076;-70
2022/08/26 04:58:48;;;;;;;32.67;23.95;;;19.60;99.90;;;;;;2113650;28;20879;-70
2022/08/26 04:59:48;;;;;;;29.23;23.92;;;19.60;99.90;;;;;;2113653;28;20051;-71
2022/08/26 05:00:52;;;;;;;30.88;22.83;;;19.60;99.90;;;;;;2113345;28;20059;-71
2022/08/26 05:01:56;;;;;;;34.83;23.60;;;19.60;99.90;;;;;;2113800;28;20617;-70
2022/08/26 05:02:56;;;;;;;27.60;23.25;;;19.70;99.90;;;;;;2113143;28;20125;-71
2022/08/26 05:03:58;;;;;;;31.17;22.95;;;19.70;99.90;;;;;;2113065;28;20627;-72
2022/08/26 05:04:58;;;;;;;29.73;23.42;;;19.60;99.90;;;;;;2113508;27;20024;-71
2022/08/26 05:06:04;;;;;;;31.35;23.35;;;19.70;99.90;;;;;;2112926;28;20035;-71
2022/08/26 05:07:05;;;;;;;31.63;24.08;;;19.70;99.90;;;;;;2113114;28;20015;-72
2022/08/26 05:08:06;;;;;;;30.38;23.52;;;19.70;99.90;;;;;;2113622;28;20051;-71
2022/08/26 05:09:06;;;;;;;30.55;24.30;;;19.70;99.90;;;;;;2113094;28;20055;-71
2022/08/26 05:10:08;;;;;;;30.25;23.85;;;19.70;99.90;;;;;;2104606;28;20039;-71
2022/08/26 05:11:09;;;;;;;33.58;24.13;;;19.70;99.90;;;;;;2112985;28;20123;-70
2022/08/26 05:12:09;;;;;;;34.85;24.45;;;19.70;99.90;;;;;;2113618;28;20497;-71
2022/08/26 05:13:12;;;;;;;30.92;23.40;;;19.70;99.90;;;;;;2115226;27;20047;-71
2022/08/26 05:14:12;;;;;;;31.05;23.75;;;19.70;99.90;;;;;;2121520;27;20064;-72
2022/08/26 05:15:13;;;;;;;31.58;24.23;;;19.80;99.90;;;;;;2120394;27;20590;-71
2022/08/26 05:16:15;;;;;;;32.83;22.85;;;19.80;99.90;;;;;;2122078;27;20026;-71
2022/08/26 05:17:15;;;;;;;28.55;22.40;;;19.80;99.90;;;;;;2121329;27;20146;-71
2022/08/26 05:18:20;;;;;;;28.60;22.95;;;19.80;99.90;;;;;;2113571;27;20031;-71
2022/08/26 05:19:20;;;;;;;31.60;24.20;;;19.80;99.90;;;;;;2121334;27;20030;-71